Terminal Aerodrome Forecast
Issued by NWS Omaha/Valley, NE

Home | Current Version | Previous Version | Graphics & Text | Print | Product List | Glossary On
Versions: 1 2 3 4 5 6 7 8 9 10 11 12 13 14 15 16 17 18 19 20 21 22 23 24 25 26 27 28 29
000
FTUS43 KOAX 012324
TAFOFK
TAF
KOFK 012324Z 0200/0224 33015G25KT P6SM -TSRA SCT050 BKN110CB
      TEMPO 0200/0201 VRB25G45KT 2SM TSRA BR OVC015CB
     FM020100 33014KT P6SM OVC080
      TEMPO 0201/0204 33014G24KT 5SM -SHRA BKN035
     FM020900 33009KT P6SM BKN150=

USA.gov is the U.S. government's official web portal to all federal, state and local government web resources and services.